Nearby METAR Reports

 

LELL - Sabadell, Spain
Distance from station: E 18km
Mise à jour: 06/12/2021 01:00
clair
clair
 Wind from O
Vent: O 17 km/h
Température: 6°C
Wind Chill: 3°C
Point de rosée: -2°C
Humidité: 57%
Baromètre: 1013 hPa
Résumé: clair
Visibility: greater than 10 km
2021/12/06 00:00 LELL 060000Z AUTO 26009KT 230V290 CAVOK 06/M02 Q1013
LEBL - Barcelona Airpor, Spain
Distance from station: SSE 33km
Mise à jour: 06/12/2021 01:00
clair
clair
 Wind from NNO
Vent: NNO 11 km/h
Température: 8°C
Wind Chill: 6°C
Point de rosée: -1°C
Humidité: 53%
Baromètre: 1014 hPa
Résumé: clair
Visibility: greater than 10 km
2021/12/06 00:00 LEBL 060000Z 34006KT 310V010 CAVOK 08/M01 Q1014 NOSIG
LERS - Reus (civ/Mil), Spain
Distance from station: SO 75km
Mise à jour: 06/12/2021 01:00
clair
clair
 Wind from S
Vent: S 19 km/h
Température: 8°C
Wind Chill: 4°C
Point de rosée: 0°C
Humidité: 57%
Baromètre: 1014 hPa
Résumé: clair
Visibility: greater than 10 km
2021/12/06 00:00 LERS 060000Z AUTO 19010KT 150V230 CAVOK 08/M00 Q1014
 
LEGE - Gerona/Costa Bra, Spain
Distance from station: ENE 83km
Mise à jour: 06/12/2021 01:00
clair
clair
 Wind from varies
Vent: varies 4 km/h
Température: 0°C
Point de rosée: -3°C
Humidité: 80%
Baromètre: 1012 hPa
Résumé: clair
Visibility: greater than 10 km
2021/12/06 00:00 LEGE 060000Z VRB02KT CAVOK 00/M03 Q1012
LFMP - Perpignan/Rivesa, France
Distance from station: NNE 155km
Mise à jour: 06/12/2021 01:00
nuageux
nuageux
 Wind from NO
Vent: NO 35 km/h
Température: 8°C
Wind Chill: 3°C
Point de rosée: 1°C
Humidité: 62%
Baromètre: 1012 hPa
Clouds: nuageux
Visibility: 10 km
Cloud details: Few Clouds 457 m
partiellement nuageux 1067 m
nuageux 1250 m
2021/12/06 00:00 LFMP 060000Z AUTO 31019KT 9999 FEW015 SCT035 BKN041 08/01 Q1012
LFMK - Carcassonne/Salv, France
Distance from station: N 191km
Mise à jour: 06/12/2021 01:00
nuageux
nuageux
 Wind from O
Vent: O 33 km/h
Température: 6°C
Wind Chill: 1°C
Point de rosée: 4°C
Humidité: 87%
Baromètre: 1015 hPa
Clouds: nuageux
Visibility: 10 km
Cloud details: partiellement nuageux 427 m
partiellement nuageux 701 m
nuageux 1006 m
2021/12/06 00:00 LFMK 060000Z AUTO 28018KT 9999 SCT014 SCT023 BKN033 06/04 Q1015
 
LEHC - Huesca-Pirineos, Spain
Distance from station: ONO 193km
Mise à jour: 06/12/2021 01:00
clair
clair
 Wind from O
Vent: O 22 km/h
Température: 2°C
Wind Chill: -3°C
Point de rosée: 0°C
Humidité: 87%
Baromètre: 1017 hPa
Résumé: clair
Visibility: greater than 10 km
2021/12/06 00:00 LEHC 060000Z AUTO 27012KT 240V310 CAVOK 02/00 Q1017
LFMU - Beziers/Vias, France
Distance from station: NNE 232km
Mise à jour: 06/12/2021 01:00
Few Clouds
Few Clouds
 Wind from NO
Vent: NO 20 km/h
Température: 7°C
Wind Chill: 4°C
Point de rosée: 0°C
Humidité: 61%
Baromètre: 1012 hPa
Clouds: Few Clouds
Visibility: 10 km
Cloud details: Few Clouds 1463 m
2021/12/06 00:00 LFMU 060000Z AUTO 32011KT 9999 FEW048 07/00 Q1012
LEPA - Palma De Mallorc, Spain
Distance from station: SSE 233km
Mise à jour: 06/12/2021 01:00
Few Clouds
Few Clouds
 Wind from NNO
Vent: NNO 31 km/h, Rafale: 50 km/h
Température: 11°C
Point de rosée: 4°C
Humidité: 62%
Baromètre: 1014 hPa
Clouds: Few Clouds
Visibility: 10 km
Cloud details: Few Clouds 914 m
2021/12/06 00:00 LEPA 060000Z 33017G27KT 9999 FEW030 11/04 Q1014 NOSIG
 
LFBO - Toulouse/Blagnac, France
Distance from station: N 236km
Mise à jour: 06/12/2021 01:00
couvert
couvert
 Wind from O
Vent: O 26 km/h
Température: 6°C
Wind Chill: 2°C
Point de rosée: 4°C
Humidité: 87%
Baromètre: 1017 hPa
Clouds: couvert
Visibility: 10 km
Cloud details: partiellement nuageux 1097 m
partiellement nuageux 1341 m
couvert 1768 m
2021/12/06 00:00 LFBO 060000Z AUTO 27014KT 9999 SCT036 SCT044 OVC058 06/04 Q1017 NOSIG
LFBT - Tarbes/Ossun, France
Distance from station: NO 239km
Mise à jour: 06/12/2021 01:00
Thunderstorm
Thunderstorm
 Wind from OSO
Vent: OSO 22 km/h
Température: 5°C
Wind Chill: 1°C
Point de rosée: 3°C
Humidité: 87%
Baromètre: 1019 hPa
Clouds: Thunderstorm
Visibility: 10 km
Cloud details: Few Clouds 549 m
nuageux 823 m
nuageux 1158 m
2021/12/06 00:00 LFBT 060000Z AUTO 25012KT 9999 FEW018/// BKN027/// BKN038/// ///TCU 05/03 Q1019 TEMPO 28015G30KT 3000 SHRA SCT010 FEW012CB BKN015TCU
LEZG - Zaragoza (mil/Ci, Spain
Distance from station: O 242km
Mise à jour: 06/12/2021 01:00
Few Clouds
Few Clouds
 Wind from ONO
Vent: ONO 31 km/h
Température: 6°C
Wind Chill: 1°C
Point de rosée: 3°C
Humidité: 81%
Baromètre: 1020 hPa
Clouds: Few Clouds
Visibility: 10 km
Cloud details: Few Clouds 1067 m
2021/12/06 00:00 LEZG 060000Z 29017KT 9999 FEW035 06/03 Q1020